KABQ/ABQ METAR and TAF weather

Enter ICAO airport designator
Station Type Date Time Source
KABQ METAR 2018/09/21 22:52 UTC NOAA

KABQ 212252Z 12013G20KT 10SM SCT070 26/06 A3025 RMK AO2 SLP170 T02610061


Station Type Date Time Source
KABQ Decoded METAR 2018/09/21 22:52 UTC NOAA

ALBUQUERQUE INTERNATIONAL AIRPORT, NM, United States (KABQ) 35-02N 106-36W 1618M
Sep 21, 2018 - 06:52 PM EDT / 2018.09.21 2252 UTC
Wind: from the ESE (120 degrees) at 15 MPH (13 KT) gusting to 23 MPH (20 KT):0
Visibility: 10 mile(s):0
Sky conditions: partly cloudy
Temperature: 79.0 F (26.1 C)
Dew Point: 43.0 F (6.1 C)
Relative Humidity: 27%
Pressure (altimeter): 30.25 in. Hg (1024 hPa)
ob: KABQ 212252Z 12013G20KT 10SM SCT070 26/06 A3025 RMK AO2 SLP170 T02610061
cycle: 23

Station Type Date Time Source
KABQ TAF 2018/09/21 22:39 UTC NOAA

TAF
AMD KABQ 212137Z 2122/2218 09015G25KT P6SM FEW050 SCT070
TEMPO 2122/2202 09023G33KT
FM220400 11012G22KT P6SM SCT090
FM220800 09006KT P6SM FEW050
FM221400 VRB05KT P6SM SKC


Example: see airport list